48NY weather

Turnbull Airport
Bloomfield, New York, United States

Public forecast

Using degrees Fahrenheit for public forecast. Weather courtesy of forecast.io.

METAR (pilot weather report)

Closest report is Greater Rochester International Airport, 18.1 nm (33.4 km) NW. Retrieved 2019/07/17 22:05 UTC (11 minutes ago):

KROC 172205Z 12004KT 10SM BKN020 BKN025 BKN150 27/21 A2988

TAF (pilot weather forecast)

Closest forecast is Greater Rochester International Airport, 18.1 nm (33.4 km) NW. Retrieved 2019/07/17 18:42 UTC (4 hours ago):

TAF KROC 171740Z 1718/1818 VRB04KT 4SM -SHRA OVC050 FM172200 VRB03KT P6SM OVC060 FM180100 VRB04KT P6SM BKN070 FM180500 VRB04KT 4SM BR BKN007 FM181500 VRB03KT P6SM BKN040